Airfield :
LOGIN :

Register | Disclaimer

   EN    FR    IT 

 










Legend :    VFR   Marginal VFR   IFR   Intensive IFR   Very Intensive IFR
Visi :
Ceiling :
>= 8 km
>= 3000ft
5 to 8 km
1000 to 3000 ft
1500m to 5 km
500 to 1000 ft
800 to 1500m
200 to 500 ft
< 800m
< 200 ft
Symbols :   Thunderstorms  Fog  Heavy snow  Heavy precipitations  Wind > 20 kt
SIGMETs :     Misc.  Thunderstorms  Icing  Turbulence  Mountain Waves  Volcanic Ashes







- Airport Elevation : 17 ft
- IATA code : GRQ


EHGG - Groningen Eelde

CURRENT METAR :
  • 250825Z AUTO 29010KT 250V330 9999 FEW011 BKN013 BKN015 10/07 Q1007 NOSIG

EXPIRED METARs :
  • 250755Z AUTO 29012KT 260V330 9999 FEW010 BKN020 OVC024 09/07 Q1007 NOSIG
  • 250725Z AUTO 30014KT 260V330 9999 BKN010 BKN012 OVC015 09/07 Q1006 NOSIG
  • 250655Z AUTO 30018KT 260V330 9999 SCT010 SCT013 BKN015 09/07 Q1005 NOSIG
  • 250625Z AUTO 28016KT 240V320 9999 SCT013 SCT016 10/07 Q1004 BECMG 30022G32KT TEMPO BKN012
  • 250555Z AUTO 26017G27KT 230V300 9999 BKN008 OVC009 09/08 Q1003 BECMG 30022G32KT TEMPO BKN012

TAF TAF EHGG
Valid from the 25 at 06:00 until the 26 at 12:00 UTC


250453Z 2506/2612 30018G30KT 9999 SCT008 BKN012
PROB30 2506/2510 BKN008
BECMG 2507/2510 27012G22KT SCT025
TEMPO 2512/2518 6000 SHRA SCT020CB BKN025
BECMG 2517/2520 22005KT
PROB30
TEMPO 2518/2612 6000 SHRA SCT020CB BKN025
PROB30 2602/2606 5000 BR BKN010
BECMG 2605/2608 25012G22KT
No reported NOTAMs for that airfield.



MET'MAP, your aeronautical weather chart ! - Copyright ORBIFLY December 2007 - Disclaimer

ORBIFLY MET'MAP TEAM :

Programming & Development : Alexandra Zaïnal
Concept & Development : Baudouin d'Aumeries
Co-Development & Prog : Marc-Olivier Méhu
Technical & hardware support : Manuel Goepfert

Contact : metmap@orbifly.com




SOURCES & CREDITS :

   NOAA